»·PEaware :: FAF101 KMHV-KSAN

FAF101 :: KMHV-KSAN

FLIGHT INFORMATION

Flight Status: Arrived
Operator:
French Airforce
More flights by this operator :: More flights under this callsign
Pilot: Anonymous 1753 (1753)
Aircraft: AIRBUS A320
(A320)
More flights by this aircraft type
Origin: KMHV Mojave
United States
Destination: KSAN San Diego Intl-Lindbergh
United States
More flights between these airports :: More routes between these airports
Route: +JERID5 JERID LAX HUBRD1
File this flight plan on PilotEdge
Remarks:
Altitude:
(Current/Filed)
19,000ft
Speed:
(Current/Filed)
451kts
Departed: 12-Jan-20 09:39 PM
Arrived: 12-Jan-20 10:21 PM
Distance/Time
Traveled:
147nm/0:42
Distance/Time
To Go:
Arrived

Flight Plot

Page will automatically refresh every two minutes.

Flight plan parsing failed; only flown route is shown


Map Options




Map Legend


Flown Route
Filed Route
Departure Airport
Arrival Airport
Navaid (VOR, NDB)
Fix

Horizontal Profiles

Position Reports

Time Latitude Longitude Heading Altitude Ground
Speed
12-Jan-20 21:10 35.057242 -118.158045 269 2769ft 0kts
12-Jan-20 21:11 35.057242 -118.158045 269 2769ft 0kts
12-Jan-20 21:12 35.057242 -118.158045 269 2769ft 0kts
12-Jan-20 21:13 35.057242 -118.158045 269 2769ft 0kts
12-Jan-20 21:14 35.057242 -118.158045 269 2769ft 0kts
12-Jan-20 21:15 35.057242 -118.158045 269 2769ft 0kts
12-Jan-20 21:16 35.057242 -118.158045 269 2769ft 0kts
12-Jan-20 21:17 35.057242 -118.158045 269 2769ft 0kts
12-Jan-20 21:18 35.057242 -118.158045 269 2769ft 0kts
12-Jan-20 21:19 35.057242 -118.158045 269 2769ft 0kts
12-Jan-20 21:20 35.057242 -118.158045 269 2769ft 0kts
12-Jan-20 21:21 35.057242 -118.158045 269 2769ft 0kts
12-Jan-20 21:22 35.057242 -118.158045 269 2769ft 0kts
12-Jan-20 21:23 35.057242 -118.158045 269 2769ft 0kts
12-Jan-20 21:24 35.057242 -118.158045 269 2769ft 0kts
12-Jan-20 21:25 35.057242 -118.158045 269 2769ft 0kts
12-Jan-20 21:26 35.057242 -118.158045 269 2769ft 0kts
12-Jan-20 21:27 35.057242 -118.158045 270 2769ft 0kts
12-Jan-20 21:28 35.057242 -118.158045 270 2769ft 0kts
12-Jan-20 21:29 35.057181 -118.158444 0 2770ft 0kts
12-Jan-20 21:30 35.057181 -118.158444 0 2770ft 0kts
12-Jan-20 21:31 35.057181 -118.158444 0 2770ft 0kts
12-Jan-20 21:32 35.057181 -118.158444 0 2770ft 0kts
12-Jan-20 21:33 35.057181 -118.158444 0 2770ft 0kts
12-Jan-20 21:34 35.057181 -118.158444 0 2770ft 0kts
12-Jan-20 21:35 35.057181 -118.158444 0 2770ft 0kts
12-Jan-20 21:36 35.057368 -118.158406 23 2770ft 7kts
12-Jan-20 21:37 35.057578 -118.149998 89 2751ft 36kts
12-Jan-20 21:38 35.049593 -118.139148 125 2710ft 41kts
12-Jan-20 21:39 35.044629 -118.133052 125 2689ft 2kts
12-Jan-20 21:40 35.049544 -118.136754 319 2706ft 121kts
12-Jan-20 21:41 35.085464 -118.181228 305 6231ft 213kts
12-Jan-20 21:42 35.076574 -118.254464 220 9988ft 273kts
12-Jan-20 21:43 34.996461 -118.274051 194 13014ft 340kts
12-Jan-20 21:44 34.909391 -118.342787 222 13039ft 393kts
12-Jan-20 21:45 34.803130 -118.382542 186 14088ft 427kts
12-Jan-20 21:46 34.686437 -118.388788 187 17601ft 407kts
12-Jan-20 21:47 34.568470 -118.395686 187 19051ft 447kts
12-Jan-20 21:48 34.440139 -118.402995 186 19051ft 465kts
12-Jan-20 21:49 34.311287 -118.410268 187 19086ft 465kts
12-Jan-20 21:50 34.182251 -118.417576 187 19121ft 463kts
12-Jan-20 21:51 34.054935 -118.424705 187 19137ft 434kts
12-Jan-20 21:52 33.945084 -118.428895 173 19140ft 365kts
12-Jan-20 21:53 33.871615 -118.353410 132 19145ft 345kts
12-Jan-20 21:54 33.806063 -118.268466 133 19014ft 345kts
12-Jan-20 21:55 33.740156 -118.184045 133 18970ft 330kts
12-Jan-20 21:56 33.679174 -118.106031 133 18975ft 318kts
12-Jan-20 21:57 33.618408 -118.028707 134 18978ft 319kts
12-Jan-20 21:58 33.555792 -117.949280 133 18619ft 329kts
12-Jan-20 21:59 33.493682 -117.870499 134 17251ft 325kts
12-Jan-20 22:00 33.428580 -117.788339 134 15221ft 337kts
12-Jan-20 22:01 33.367666 -117.711240 134 14977ft 301kts
12-Jan-20 22:02 33.306514 -117.634444 134 14977ft 347kts
12-Jan-20 22:03 33.234544 -117.544274 134 14772ft 381kts
12-Jan-20 22:04 33.166233 -117.446180 121 10143ft 392kts
12-Jan-20 22:05 33.109551 -117.350257 121 8079ft 308kts
12-Jan-20 22:06 33.061363 -117.273371 121 6984ft 278kts
12-Jan-20 22:07 33.014008 -117.198188 121 6969ft 282kts
12-Jan-20 22:08 32.969304 -117.123699 121 6974ft 259kts
12-Jan-20 22:09 32.932313 -117.054110 121 6992ft 253kts
12-Jan-20 22:10 32.891169 -116.985268 121 6994ft 255kts
12-Jan-20 22:11 32.851138 -116.914417 121 7001ft 257kts
12-Jan-20 22:12 32.812301 -116.842745 133 6998ft 256kts
12-Jan-20 22:13 32.750404 -116.843713 208 6082ft 241kts
12-Jan-20 22:14 32.690836 -116.879681 227 4987ft 238kts
12-Jan-20 22:15 32.674634 -116.949183 288 4250ft 208kts
12-Jan-20 22:16 32.690305 -117.013309 286 3594ft 200kts
12-Jan-20 22:17 32.704282 -117.069545 287 3068ft 143kts
12-Jan-20 22:18 32.716019 -117.117711 285 1240ft 132kts
12-Jan-20 22:19 32.725490 -117.157532 282 499ft 126kts
12-Jan-20 22:20 32.732934 -117.187991 262 22ft 10kts
12-Jan-20 22:21 32.732660 -117.188444 219 21ft 0kts
12-Jan-20 22:22 32.732943 -117.191587 286 22ft 21kts
12-Jan-20 22:23 32.733523 -117.195196 224 22ft 5kts
12-Jan-20 22:24 32.733145 -117.195662 227 21ft 1kts
12-Jan-20 22:25 32.733128 -117.195684 227 21ft 0kts
12-Jan-20 22:26 32.733128 -117.195684 227 21ft 0kts
12-Jan-20 22:27 32.733128 -117.195684 227 21ft 0kts
12-Jan-20 22:28 32.733128 -117.195684 227 21ft 0kts
12-Jan-20 22:29 32.733128 -117.195684 227 21ft 0kts
12-Jan-20 22:30 32.733128 -117.195684 227 21ft 0kts
12-Jan-20 22:31 32.733128 -117.195684 227 21ft 0kts
12-Jan-20 22:32 32.733128 -117.195684 227 21ft 0kts
12-Jan-20 22:33 32.733128 -117.195684 227 21ft 0kts
12-Jan-20 22:34 32.733128 -117.195684 227 21ft 0kts
12-Jan-20 22:35 32.733128 -117.195684 227 21ft 0kts

Navigation Log

Ident Type
Flight plan parsing failed, navigation log unavailable